Terminal Aerodrome Forecast
Issued by NWS Memphis, TN

Home | Current Version | Previous Version | Text Only | Print | Product List | Glossary On
Versions: 1 2 3 4 5 6 7 8 9 10 11 12 13
622
FTUS44 KMEG 191726
TAFJBR
TAF
KJBR 191726Z 1918/2018 36011G18KT P6SM FEW045
     FM192100 03009KT P6SM FEW050
     FM200100 03003KT P6SM SKC
     FM201500 07009KT P6SM SCT250=

USA.gov is the U.S. government's official web portal to all federal, state and local government web resources and services.